sensor_id;sensor_type;location;lat;lon;timestamp;temperature;humidity
63094;DHT22;49183;51.380;0.098;2023-08-06T00:01:28;9.10;92.60
63094;DHT22;49183;51.380;0.098;2023-08-06T00:03:56;9.10;92.60
63094;DHT22;49183;51.380;0.098;2023-08-06T00:06:24;9.10;92.70
63094;DHT22;49183;51.380;0.098;2023-08-06T00:08:51;9.10;92.60
63094;DHT22;49183;51.380;0.098;2023-08-06T00:11:19;9.00;92.60
63094;DHT22;49183;51.380;0.098;2023-08-06T00:13:47;9.00;92.50
63094;DHT22;49183;51.380;0.098;2023-08-06T00:16:14;8.90;92.50
63094;DHT22;49183;51.380;0.098;2023-08-06T00:18:42;8.90;92.50
63094;DHT22;49183;51.380;0.098;2023-08-06T00:21:09;8.90;92.60
63094;DHT22;49183;51.380;0.098;2023-08-06T00:23:40;8.90;92.50
63094;DHT22;49183;51.380;0.098;2023-08-06T00:26:08;8.80;92.50
63094;DHT22;49183;51.380;0.098;2023-08-06T00:28:35;8.80;92.60
63094;DHT22;49183;51.380;0.098;2023-08-06T00:31:03;8.80;92.70
63094;DHT22;49183;51.380;0.098;2023-08-06T00:33:30;8.80;92.80
63094;DHT22;49183;51.380;0.098;2023-08-06T00:36:04;8.80;92.80
63094;DHT22;49183;51.380;0.098;2023-08-06T00:38:32;8.80;92.70
63094;DHT22;49183;51.380;0.098;2023-08-06T00:40:59;8.80;92.70
63094;DHT22;49183;51.380;0.098;2023-08-06T00:43:27;8.80;92.60
63094;DHT22;49183;51.380;0.098;2023-08-06T00:45:54;8.80;92.60
63094;DHT22;49183;51.380;0.098;2023-08-06T00:48:22;8.80;92.60
63094;DHT22;49183;51.380;0.098;2023-08-06T00:50:50;8.80;92.60
63094;DHT22;49183;51.380;0.098;2023-08-06T00:53:17;8.80;92.60
63094;DHT22;49183;51.380;0.098;2023-08-06T00:55:45;8.80;92.60
63094;DHT22;49183;51.380;0.098;2023-08-06T00:58:13;8.90;92.60
63094;DHT22;49183;51.380;0.098;2023-08-06T01:00:41;8.90;92.60
63094;DHT22;49183;51.380;0.098;2023-08-06T01:03:09;8.80;92.60
63094;DHT22;49183;51.380;0.098;2023-08-06T01:05:37;8.80;92.70
63094;DHT22;49183;51.380;0.098;2023-08-06T01:13:16;8.80;92.70
63094;DHT22;49183;51.380;0.098;2023-08-06T01:15:47;8.80;92.70
63094;DHT22;49183;51.380;0.098;2023-08-06T01:18:16;8.80;92.80
63094;DHT22;49183;51.380;0.098;2023-08-06T01:20:44;8.80;92.80
63094;DHT22;49183;51.380;0.098;2023-08-06T01:23:11;8.80;92.80
63094;DHT22;49183;51.380;0.098;2023-08-06T01:25:49;8.80;92.80
63094;DHT22;49183;51.380;0.098;2023-08-06T01:28:22;8.80;92.80
63094;DHT22;49183;51.380;0.098;2023-08-06T01:30:51;8.80;92.70
63094;DHT22;49183;51.380;0.098;2023-08-06T01:33:21;8.80;92.80
63094;DHT22;49183;51.380;0.098;2023-08-06T01:35:49;8.80;92.80
63094;DHT22;49183;51.380;0.098;2023-08-06T01:38:17;8.80;92.90
63094;DHT22;49183;51.380;0.098;2023-08-06T01:40:45;8.80;93.00
63094;DHT22;49183;51.380;0.098;2023-08-06T01:43:12;8.80;92.90
63094;DHT22;49183;51.380;0.098;2023-08-06T01:45:40;8.80;92.90
63094;DHT22;49183;51.380;0.098;2023-08-06T01:48:08;8.80;92.90
63094;DHT22;49183;51.380;0.098;2023-08-06T01:50:35;8.80;92.90
63094;DHT22;49183;51.380;0.098;2023-08-06T01:53:03;8.90;92.90
63094;DHT22;49183;51.380;0.098;2023-08-06T01:55:30;8.90;92.90
63094;DHT22;49183;51.380;0.098;2023-08-06T01:57:58;8.90;92.90
63094;DHT22;49183;51.380;0.098;2023-08-06T02:00:26;8.90;92.90
63094;DHT22;49183;51.380;0.098;2023-08-06T02:02:55;9.00;92.90
63094;DHT22;49183;51.380;0.098;2023-08-06T02:05:22;8.90;92.90
63094;DHT22;49183;51.380;0.098;2023-08-06T02:07:50;9.00;93.00
63094;DHT22;49183;51.380;0.098;2023-08-06T02:10:18;9.00;93.00
63094;DHT22;49183;51.380;0.098;2023-08-06T02:12:45;9.10;93.10
63094;DHT22;49183;51.380;0.098;2023-08-06T02:15:13;9.10;93.10
63094;DHT22;49183;51.380;0.098;2023-08-06T02:17:44;9.20;93.10
63094;DHT22;49183;51.380;0.098;2023-08-06T02:21:06;9.30;93.00
63094;DHT22;49183;51.380;0.098;2023-08-06T02:23:58;9.30;93.00
63094;DHT22;49183;51.380;0.098;2023-08-06T02:26:57;9.30;92.90
63094;DHT22;49183;51.380;0.098;2023-08-06T02:29:48;9.40;92.90
63094;DHT22;49183;51.380;0.098;2023-08-06T02:32:15;9.40;92.90
63094;DHT22;49183;51.380;0.098;2023-08-06T02:34:43;9.40;92.90
63094;DHT22;49183;51.380;0.098;2023-08-06T02:37:12;9.50;92.90
63094;DHT22;49183;51.380;0.098;2023-08-06T02:39:46;9.60;93.00
63094;DHT22;49183;51.380;0.098;2023-08-06T02:42:14;9.60;93.00
63094;DHT22;49183;51.380;0.098;2023-08-06T02:44:42;9.70;93.00
63094;DHT22;49183;51.380;0.098;2023-08-06T02:47:10;9.80;93.00
63094;DHT22;49183;51.380;0.098;2023-08-06T02:49:37;9.80;93.00
63094;DHT22;49183;51.380;0.098;2023-08-06T02:52:05;9.90;93.00
63094;DHT22;49183;51.380;0.098;2023-08-06T02:54:33;10.00;93.00
63094;DHT22;49183;51.380;0.098;2023-08-06T02:57:01;10.10;93.00
63094;DHT22;49183;51.380;0.098;2023-08-06T02:59:31;10.20;93.00
63094;DHT22;49183;51.380;0.098;2023-08-06T03:02:12;10.20;92.90
63094;DHT22;49183;51.380;0.098;2023-08-06T03:05:03;10.30;92.90
63094;DHT22;49183;51.380;0.098;2023-08-06T03:07:35;10.30;92.90
63094;DHT22;49183;51.380;0.098;2023-08-06T03:10:12;10.30;92.90
63094;DHT22;49183;51.380;0.098;2023-08-06T03:12:42;10.30;92.90
63094;DHT22;49183;51.380;0.098;2023-08-06T03:15:10;10.40;92.90
63094;DHT22;49183;51.380;0.098;2023-08-06T03:17:38;10.40;92.90
63094;DHT22;49183;51.380;0.098;2023-08-06T03:20:08;10.40;93.00
63094;DHT22;49183;51.380;0.098;2023-08-06T03:22:36;10.40;93.00
63094;DHT22;49183;51.380;0.098;2023-08-06T03:25:04;10.40;93.00
63094;DHT22;49183;51.380;0.098;2023-08-06T03:27:33;10.40;93.00
63094;DHT22;49183;51.380;0.098;2023-08-06T03:30:01;10.40;93.00
63094;DHT22;49183;51.380;0.098;2023-08-06T03:32:30;10.40;93.10
63094;DHT22;49183;51.380;0.098;2023-08-06T03:34:59;10.40;93.10
63094;DHT22;49183;51.380;0.098;2023-08-06T03:37:30;10.40;93.20
63094;DHT22;49183;51.380;0.098;2023-08-06T03:39:57;10.30;93.20
63094;DHT22;49183;51.380;0.098;2023-08-06T03:42:25;10.30;93.20
63094;DHT22;49183;51.380;0.098;2023-08-06T03:44:52;10.30;93.30
63094;DHT22;49183;51.380;0.098;2023-08-06T03:47:20;10.30;93.40
63094;DHT22;49183;51.380;0.098;2023-08-06T03:49:51;10.30;93.40
63094;DHT22;49183;51.380;0.098;2023-08-06T03:52:19;10.40;93.40
63094;DHT22;49183;51.380;0.098;2023-08-06T03:54:47;10.40;93.40
63094;DHT22;49183;51.380;0.098;2023-08-06T03:57:15;10.40;93.40
63094;DHT22;49183;51.380;0.098;2023-08-06T03:59:43;10.40;93.40
63094;DHT22;49183;51.380;0.098;2023-08-06T04:02:22;10.40;93.40
63094;DHT22;49183;51.380;0.098;2023-08-06T04:04:49;10.50;93.40
63094;DHT22;49183;51.380;0.098;2023-08-06T04:07:17;10.40;93.40
63094;DHT22;49183;51.380;0.098;2023-08-06T04:09:58;10.50;93.40
63094;DHT22;49183;51.380;0.098;2023-08-06T04:12:26;10.40;93.40
63094;DHT22;49183;51.380;0.098;2023-08-06T04:14:54;10.50;93.40
63094;DHT22;49183;51.380;0.098;2023-08-06T04:17:23;10.40;93.50
63094;DHT22;49183;51.380;0.098;2023-08-06T04:19:55;10.50;93.60
63094;DHT22;49183;51.380;0.098;2023-08-06T04:22:25;10.50;93.60
63094;DHT22;49183;51.380;0.098;2023-08-06T04:24:53;10.50;93.60
63094;DHT22;49183;51.380;0.098;2023-08-06T04:27:20;10.50;93.50
63094;DHT22;49183;51.380;0.098;2023-08-06T04:29:49;10.50;93.50
63094;DHT22;49183;51.380;0.098;2023-08-06T04:32:17;10.50;93.50
63094;DHT22;49183;51.380;0.098;2023-08-06T04:34:51;10.50;93.50
63094;DHT22;49183;51.380;0.098;2023-08-06T04:37:18;10.40;93.50
63094;DHT22;49183;51.380;0.098;2023-08-06T04:39:46;10.40;93.60
63094;DHT22;49183;51.380;0.098;2023-08-06T04:42:14;10.40;93.60
63094;DHT22;49183;51.380;0.098;2023-08-06T04:44:42;10.40;93.60
63094;DHT22;49183;51.380;0.098;2023-08-06T04:47:09;10.40;93.70
63094;DHT22;49183;51.380;0.098;2023-08-06T04:49:37;10.40;93.70
63094;DHT22;49183;51.380;0.098;2023-08-06T04:52:04;10.40;93.80
63094;DHT22;49183;51.380;0.098;2023-08-06T04:54:32;10.40;93.80
63094;DHT22;49183;51.380;0.098;2023-08-06T04:57:00;10.40;93.80
63094;DHT22;49183;51.380;0.098;2023-08-06T04:59:28;10.50;93.90
63094;DHT22;49183;51.380;0.098;2023-08-06T05:01:55;10.50;93.90
63094;DHT22;49183;51.380;0.098;2023-08-06T05:04:23;10.50;93.90
63094;DHT22;49183;51.380;0.098;2023-08-06T05:06:50;10.60;93.90
63094;DHT22;49183;51.380;0.098;2023-08-06T05:09:18;10.60;93.90
63094;DHT22;49183;51.380;0.098;2023-08-06T05:11:49;10.70;93.90
63094;DHT22;49183;51.380;0.098;2023-08-06T05:14:17;10.70;93.90
63094;DHT22;49183;51.380;0.098;2023-08-06T05:16:45;10.80;93.90
63094;DHT22;49183;51.380;0.098;2023-08-06T05:19:13;10.80;93.90
63094;DHT22;49183;51.380;0.098;2023-08-06T05:21:41;10.90;93.90
63094;DHT22;49183;51.380;0.098;2023-08-06T05:24:13;10.90;93.90
63094;DHT22;49183;51.380;0.098;2023-08-06T05:26:40;11.00;93.90
63094;DHT22;49183;51.380;0.098;2023-08-06T05:29:08;11.10;93.80
63094;DHT22;49183;51.380;0.098;2023-08-06T05:31:36;11.10;93.80
63094;DHT22;49183;51.380;0.098;2023-08-06T05:34:03;11.20;93.80
63094;DHT22;49183;51.380;0.098;2023-08-06T05:36:37;11.20;93.80
63094;DHT22;49183;51.380;0.098;2023-08-06T05:39:30;11.30;93.70
63094;DHT22;49183;51.380;0.098;2023-08-06T05:42:30;11.30;93.70
63094;DHT22;49183;51.380;0.098;2023-08-06T05:45:18;11.30;93.70
63094;DHT22;49183;51.380;0.098;2023-08-06T05:48:24;11.30;93.70
63094;DHT22;49183;51.380;0.098;2023-08-06T05:50:52;11.40;93.70
63094;DHT22;49183;51.380;0.098;2023-08-06T05:53:20;11.40;93.70
63094;DHT22;49183;51.380;0.098;2023-08-06T05:55:47;11.40;93.70
63094;DHT22;49183;51.380;0.098;2023-08-06T05:58:14;11.40;93.80
63094;DHT22;49183;51.380;0.098;2023-08-06T06:00:42;11.50;93.80
63094;DHT22;49183;51.380;0.098;2023-08-06T06:03:10;11.50;93.80
63094;DHT22;49183;51.380;0.098;2023-08-06T06:05:38;11.60;93.70
63094;DHT22;49183;51.380;0.098;2023-08-06T06:08:08;11.70;93.70
63094;DHT22;49183;51.380;0.098;2023-08-06T06:10:36;11.70;93.70
63094;DHT22;49183;51.380;0.098;2023-08-06T06:13:03;11.70;93.60
63094;DHT22;49183;51.380;0.098;2023-08-06T06:15:33;11.80;93.60
63094;DHT22;49183;51.380;0.098;2023-08-06T06:18:01;11.80;93.60
63094;DHT22;49183;51.380;0.098;2023-08-06T06:20:31;11.80;93.60
63094;DHT22;49183;51.380;0.098;2023-08-06T06:22:59;11.90;93.60
63094;DHT22;49183;51.380;0.098;2023-08-06T06:25:27;11.90;93.50
63094;DHT22;49183;51.380;0.098;2023-08-06T06:27:54;11.90;93.50
63094;DHT22;49183;51.380;0.098;2023-08-06T06:30:22;12.00;93.60
63094;DHT22;49183;51.380;0.098;2023-08-06T06:32:50;12.20;93.60
63094;DHT22;49183;51.380;0.098;2023-08-06T06:35:17;12.30;93.60
63094;DHT22;49183;51.380;0.098;2023-08-06T06:37:45;12.40;93.60
63094;DHT22;49183;51.380;0.098;2023-08-06T06:40:13;12.60;93.60
63094;DHT22;49183;51.380;0.098;2023-08-06T06:42:40;12.70;93.20
63094;DHT22;49183;51.380;0.098;2023-08-06T06:45:09;12.80;92.90
63094;DHT22;49183;51.380;0.098;2023-08-06T06:47:36;12.80;92.80
63094;DHT22;49183;51.380;0.098;2023-08-06T06:50:04;13.00;92.50
63094;DHT22;49183;51.380;0.098;2023-08-06T06:52:34;13.10;92.40
63094;DHT22;49183;51.380;0.098;2023-08-06T06:55:01;13.30;92.20
63094;DHT22;49183;51.380;0.098;2023-08-06T06:57:29;13.30;91.90
63094;DHT22;49183;51.380;0.098;2023-08-06T07:00:00;13.40;91.70
63094;DHT22;49183;51.380;0.098;2023-08-06T07:02:30;13.40;91.60
63094;DHT22;49183;51.380;0.098;2023-08-06T07:04:57;13.50;91.60
63094;DHT22;49183;51.380;0.098;2023-08-06T07:07:25;13.70;91.60
63094;DHT22;49183;51.380;0.098;2023-08-06T07:09:52;13.90;91.50
63094;DHT22;49183;51.380;0.098;2023-08-06T07:12:20;14.10;91.20
63094;DHT22;49183;51.380;0.098;2023-08-06T07:14:49;14.10;90.80
63094;DHT22;49183;51.380;0.098;2023-08-06T07:17:16;14.30;90.40
63094;DHT22;49183;51.380;0.098;2023-08-06T07:19:48;14.30;90.10
63094;DHT22;49183;51.380;0.098;2023-08-06T07:22:16;14.40;89.70
63094;DHT22;49183;51.380;0.098;2023-08-06T07:24:43;14.40;89.50
63094;DHT22;49183;51.380;0.098;2023-08-06T07:27:11;14.60;89.30
63094;DHT22;49183;51.380;0.098;2023-08-06T07:29:38;14.80;88.80
63094;DHT22;49183;51.380;0.098;2023-08-06T07:32:06;14.80;88.20
63094;DHT22;49183;51.380;0.098;2023-08-06T07:34:34;14.90;87.80
63094;DHT22;49183;51.380;0.098;2023-08-06T07:37:01;14.80;87.40
63094;DHT22;49183;51.380;0.098;2023-08-06T07:39:29;14.90;87.50
63094;DHT22;49183;51.380;0.098;2023-08-06T07:41:57;15.00;87.60
63094;DHT22;49183;51.380;0.098;2023-08-06T07:44:25;15.30;87.50
63094;DHT22;49183;51.380;0.098;2023-08-06T07:46:52;15.40;87.00
63094;DHT22;49183;51.380;0.098;2023-08-06T07:49:20;15.50;86.30
63094;DHT22;49183;51.380;0.098;2023-08-06T07:51:47;15.70;86.10
63094;DHT22;49183;51.380;0.098;2023-08-06T07:54:15;15.80;85.60
63094;DHT22;49183;51.380;0.098;2023-08-06T07:56:42;15.80;84.90
63094;DHT22;49183;51.380;0.098;2023-08-06T07:59:10;15.70;84.80
63094;DHT22;49183;51.380;0.098;2023-08-06T08:01:37;15.50;84.70
63094;DHT22;49183;51.380;0.098;2023-08-06T08:04:05;15.40;84.80
63094;DHT22;49183;51.380;0.098;2023-08-06T08:06:33;15.20;84.90
63094;DHT22;49183;51.380;0.098;2023-08-06T08:09:00;15.10;85.30
63094;DHT22;49183;51.380;0.098;2023-08-06T08:11:28;14.80;85.50
63094;DHT22;49183;51.380;0.098;2023-08-06T08:13:55;14.60;86.00
63094;DHT22;49183;51.380;0.098;2023-08-06T08:16:23;14.30;86.80
63094;DHT22;49183;51.380;0.098;2023-08-06T08:18:51;14.10;87.50
63094;DHT22;49183;51.380;0.098;2023-08-06T08:21:18;14.00;88.10
63094;DHT22;49183;51.380;0.098;2023-08-06T08:23:45;14.00;88.50
63094;DHT22;49183;51.380;0.098;2023-08-06T08:26:13;14.10;88.80
63094;DHT22;49183;51.380;0.098;2023-08-06T08:28:41;14.20;88.70
63094;DHT22;49183;51.380;0.098;2023-08-06T08:31:08;14.30;88.90
63094;DHT22;49183;51.380;0.098;2023-08-06T08:33:39;14.40;88.60
63094;DHT22;49183;51.380;0.098;2023-08-06T08:36:07;14.40;88.30
63094;DHT22;49183;51.380;0.098;2023-08-06T08:38:34;14.40;88.40
63094;DHT22;49183;51.380;0.098;2023-08-06T08:41:02;14.50;88.20
63094;DHT22;49183;51.380;0.098;2023-08-06T08:43:30;14.50;88.00
63094;DHT22;49183;51.380;0.098;2023-08-06T08:45:58;14.60;87.80
63094;DHT22;49183;51.380;0.098;2023-08-06T08:48:26;14.70;87.00
63094;DHT22;49183;51.380;0.098;2023-08-06T08:50:54;14.80;86.50
63094;DHT22;49183;51.380;0.098;2023-08-06T08:53:22;15.00;86.20
63094;DHT22;49183;51.380;0.098;2023-08-06T08:55:50;15.20;85.90
63094;DHT22;49183;51.380;0.098;2023-08-06T08:58:18;15.30;85.80
63094;DHT22;49183;51.380;0.098;2023-08-06T09:00:45;15.50;85.60
63094;DHT22;49183;51.380;0.098;2023-08-06T09:03:13;15.60;85.20
63094;DHT22;49183;51.380;0.098;2023-08-06T09:05:43;15.80;84.80
63094;DHT22;49183;51.380;0.098;2023-08-06T09:08:11;15.80;83.70
63094;DHT22;49183;51.380;0.098;2023-08-06T09:10:40;15.90;82.40
63094;DHT22;49183;51.380;0.098;2023-08-06T09:13:08;15.90;82.00
63094;DHT22;49183;51.380;0.098;2023-08-06T09:15:36;16.00;82.10
63094;DHT22;49183;51.380;0.098;2023-08-06T09:18:10;16.20;82.30
63094;DHT22;49183;51.380;0.098;2023-08-06T09:20:39;16.30;82.10
63094;DHT22;49183;51.380;0.098;2023-08-06T09:23:07;16.10;80.90
63094;DHT22;49183;51.380;0.098;2023-08-06T09:25:36;15.60;81.10
63094;DHT22;49183;51.380;0.098;2023-08-06T09:28:04;15.10;82.20
63094;DHT22;49183;51.380;0.098;2023-08-06T09:30:33;14.60;83.60
63094;DHT22;49183;51.380;0.098;2023-08-06T09:33:01;14.30;84.60
63094;DHT22;49183;51.380;0.098;2023-08-06T09:35:29;14.00;85.60
63094;DHT22;49183;51.380;0.098;2023-08-06T09:38:07;13.80;86.20
63094;DHT22;49183;51.380;0.098;2023-08-06T09:40:35;13.80;86.90
63094;DHT22;49183;51.380;0.098;2023-08-06T09:43:03;13.70;87.40
63094;DHT22;49183;51.380;0.098;2023-08-06T09:45:36;13.70;87.80
63094;DHT22;49183;51.380;0.098;2023-08-06T09:48:05;13.80;88.00
63094;DHT22;49183;51.380;0.098;2023-08-06T09:50:36;13.90;88.10
63094;DHT22;49183;51.380;0.098;2023-08-06T09:53:05;13.90;88.20
63094;DHT22;49183;51.380;0.098;2023-08-06T09:55:33;13.90;88.50
63094;DHT22;49183;51.380;0.098;2023-08-06T09:58:01;13.90;88.70
63094;DHT22;49183;51.380;0.098;2023-08-06T10:00:30;14.00;88.80
63094;DHT22;49183;51.380;0.098;2023-08-06T10:03:04;14.10;88.80
63094;DHT22;49183;51.380;0.098;2023-08-06T10:05:34;14.10;88.80
63094;DHT22;49183;51.380;0.098;2023-08-06T10:08:01;14.20;88.70
63094;DHT22;49183;51.380;0.098;2023-08-06T10:10:29;14.30;88.80
63094;DHT22;49183;51.380;0.098;2023-08-06T10:12:57;14.30;88.90
63094;DHT22;49183;51.380;0.098;2023-08-06T10:15:26;14.40;89.10
63094;DHT22;49183;51.380;0.098;2023-08-06T10:17:54;14.40;88.80
63094;DHT22;49183;51.380;0.098;2023-08-06T10:20:23;14.50;89.10
63094;DHT22;49183;51.380;0.098;2023-08-06T10:23:01;14.70;89.10
63094;DHT22;49183;51.380;0.098;2023-08-06T10:25:36;14.90;89.20
63094;DHT22;49183;51.380;0.098;2023-08-06T10:28:08;15.10;88.80
63094;DHT22;49183;51.380;0.098;2023-08-06T10:30:46;15.20;88.20
63094;DHT22;49183;51.380;0.098;2023-08-06T10:33:14;15.10;87.80
63094;DHT22;49183;51.380;0.098;2023-08-06T10:35:44;14.80;87.30
63094;DHT22;49183;51.380;0.098;2023-08-06T10:38:12;14.60;87.20
63094;DHT22;49183;51.380;0.098;2023-08-06T10:40:47;14.40;87.30
63094;DHT22;49183;51.380;0.098;2023-08-06T10:43:25;14.30;87.60
63094;DHT22;49183;51.380;0.098;2023-08-06T10:45:54;14.10;87.80
63094;DHT22;49183;51.380;0.098;2023-08-06T10:48:28;14.00;88.10
63094;DHT22;49183;51.380;0.098;2023-08-06T10:50:56;14.00;88.20
63094;DHT22;49183;51.380;0.098;2023-08-06T10:53:23;13.90;88.50
63094;DHT22;49183;51.380;0.098;2023-08-06T10:55:51;14.10;88.70
63094;DHT22;49183;51.380;0.098;2023-08-06T10:58:18;14.10;88.80
63094;DHT22;49183;51.380;0.098;2023-08-06T11:00:46;14.00;88.90
63094;DHT22;49183;51.380;0.098;2023-08-06T11:03:14;14.10;88.80
63094;DHT22;49183;51.380;0.098;2023-08-06T11:05:48;14.20;88.90
63094;DHT22;49183;51.380;0.098;2023-08-06T11:08:28;14.40;88.70
63094;DHT22;49183;51.380;0.098;2023-08-06T11:10:57;14.50;88.60
63094;DHT22;49183;51.380;0.098;2023-08-06T11:13:34;14.70;88.60
63094;DHT22;49183;51.380;0.098;2023-08-06T11:16:02;14.90;88.50
63094;DHT22;49183;51.380;0.098;2023-08-06T11:18:29;15.20;88.20
63094;DHT22;49183;51.380;0.098;2023-08-06T11:21:00;15.20;87.30
63094;DHT22;49183;51.380;0.098;2023-08-06T11:23:28;15.00;87.20
63094;DHT22;49183;51.380;0.098;2023-08-06T11:25:56;14.80;87.40
63094;DHT22;49183;51.380;0.098;2023-08-06T11:28:24;14.60;87.40
63094;DHT22;49183;51.380;0.098;2023-08-06T11:30:52;14.40;87.70
63094;DHT22;49183;51.380;0.098;2023-08-06T11:33:21;14.30;88.00
63094;DHT22;49183;51.380;0.098;2023-08-06T11:35:49;14.20;88.10
63094;DHT22;49183;51.380;0.098;2023-08-06T11:38:17;14.10;88.40
63094;DHT22;49183;51.380;0.098;2023-08-06T11:40:45;14.10;88.80
63094;DHT22;49183;51.380;0.098;2023-08-06T11:43:13;14.10;89.00
63094;DHT22;49183;51.380;0.098;2023-08-06T11:45:41;14.30;89.20
63094;DHT22;49183;51.380;0.098;2023-08-06T11:48:09;14.30;89.20
63094;DHT22;49183;51.380;0.098;2023-08-06T11:50:37;14.40;88.90
63094;DHT22;49183;51.380;0.098;2023-08-06T11:53:05;14.50;89.00
63094;DHT22;49183;51.380;0.098;2023-08-06T11:55:33;14.70;88.80
63094;DHT22;49183;51.380;0.098;2023-08-06T11:58:04;14.80;88.10
63094;DHT22;49183;51.380;0.098;2023-08-06T12:00:32;14.80;87.50
63094;DHT22;49183;51.380;0.098;2023-08-06T12:03:00;14.90;87.10
63094;DHT22;49183;51.380;0.098;2023-08-06T12:05:31;15.00;86.90
63094;DHT22;49183;51.380;0.098;2023-08-06T12:08:01;14.90;86.70
63094;DHT22;49183;51.380;0.098;2023-08-06T12:10:29;14.80;86.70
63094;DHT22;49183;51.380;0.098;2023-08-06T12:12:57;14.60;86.60
63094;DHT22;49183;51.380;0.098;2023-08-06T12:15:25;14.40;87.00
63094;DHT22;49183;51.380;0.098;2023-08-06T12:17:53;14.40;87.40
63094;DHT22;49183;51.380;0.098;2023-08-06T12:20:20;14.60;87.60
63094;DHT22;49183;51.380;0.098;2023-08-06T12:22:48;14.80;87.60
63094;DHT22;49183;51.380;0.098;2023-08-06T12:25:16;14.80;87.30
63094;DHT22;49183;51.380;0.098;2023-08-06T12:27:43;15.00;87.10
63094;DHT22;49183;51.380;0.098;2023-08-06T12:30:12;15.10;86.80
63094;DHT22;49183;51.380;0.098;2023-08-06T12:32:40;15.10;86.40
63094;DHT22;49183;51.380;0.098;2023-08-06T12:35:08;15.20;86.40
63094;DHT22;49183;51.380;0.098;2023-08-06T12:37:36;15.20;86.30
63094;DHT22;49183;51.380;0.098;2023-08-06T12:40:06;15.20;86.30
63094;DHT22;49183;51.380;0.098;2023-08-06T12:42:53;15.00;86.70
63094;DHT22;49183;51.380;0.098;2023-08-06T12:45:21;14.80;86.90
63094;DHT22;49183;51.380;0.098;2023-08-06T12:47:49;14.60;86.80
63094;DHT22;49183;51.380;0.098;2023-08-06T12:50:17;14.30;86.80
63094;DHT22;49183;51.380;0.098;2023-08-06T12:52:45;14.10;87.10
63094;DHT22;49183;51.380;0.098;2023-08-06T12:55:13;14.00;87.30
63094;DHT22;49183;51.380;0.098;2023-08-06T12:57:40;13.90;87.60
63094;DHT22;49183;51.380;0.098;2023-08-06T13:00:29;14.00;87.50
63094;DHT22;49183;51.380;0.098;2023-08-06T13:02:57;14.10;87.60
63094;DHT22;49183;51.380;0.098;2023-08-06T13:05:25;14.20;87.80
63094;DHT22;49183;51.380;0.098;2023-08-06T13:07:52;14.40;87.70
63094;DHT22;49183;51.380;0.098;2023-08-06T13:10:20;14.50;87.60
63094;DHT22;49183;51.380;0.098;2023-08-06T13:12:48;14.80;87.40
63094;DHT22;49183;51.380;0.098;2023-08-06T13:15:16;15.10;87.20
63094;DHT22;49183;51.380;0.098;2023-08-06T13:17:44;15.30;87.10
63094;DHT22;49183;51.380;0.098;2023-08-06T13:20:12;15.50;86.80
63094;DHT22;49183;51.380;0.098;2023-08-06T13:22:39;15.70;86.20
63094;DHT22;49183;51.380;0.098;2023-08-06T13:25:07;15.80;85.90
63094;DHT22;49183;51.380;0.098;2023-08-06T13:27:34;16.10;85.80
63094;DHT22;49183;51.380;0.098;2023-08-06T13:30:03;16.40;85.70
63094;DHT22;49183;51.380;0.098;2023-08-06T13:32:30;16.50;84.40
63094;DHT22;49183;51.380;0.098;2023-08-06T13:34:59;16.50;84.00
63094;DHT22;49183;51.380;0.098;2023-08-06T13:37:27;16.50;83.10
63094;DHT22;49183;51.380;0.098;2023-08-06T13:39:55;16.60;84.10
63094;DHT22;49183;51.380;0.098;2023-08-06T13:42:22;17.00;84.20
63094;DHT22;49183;51.380;0.098;2023-08-06T13:44:50;17.30;84.00
63094;DHT22;49183;51.380;0.098;2023-08-06T13:47:17;17.60;82.60
63094;DHT22;49183;51.380;0.098;2023-08-06T13:49:45;17.60;82.10
63094;DHT22;49183;51.380;0.098;2023-08-06T13:52:12;17.60;80.80
63094;DHT22;49183;51.380;0.098;2023-08-06T13:54:48;17.60;79.30
63094;DHT22;49183;51.380;0.098;2023-08-06T13:57:16;17.60;77.90
63094;DHT22;49183;51.380;0.098;2023-08-06T13:59:47;17.60;78.30
63094;DHT22;49183;51.380;0.098;2023-08-06T14:02:14;17.60;78.50
63094;DHT22;49183;51.380;0.098;2023-08-06T14:04:42;17.60;78.00
63094;DHT22;49183;51.380;0.098;2023-08-06T14:07:10;17.40;77.40
63094;DHT22;49183;51.380;0.098;2023-08-06T14:09:37;17.40;77.60
63094;DHT22;49183;51.380;0.098;2023-08-06T14:12:06;17.40;76.70
63094;DHT22;49183;51.380;0.098;2023-08-06T14:14:33;17.40;76.20
63094;DHT22;49183;51.380;0.098;2023-08-06T14:17:01;17.30;75.70
63094;DHT22;49183;51.380;0.098;2023-08-06T14:19:29;17.20;75.80
63094;DHT22;49183;51.380;0.098;2023-08-06T14:21:57;17.30;76.40
63094;DHT22;49183;51.380;0.098;2023-08-06T14:24:24;17.60;76.00
63094;DHT22;49183;51.380;0.098;2023-08-06T14:26:52;17.80;74.90
63094;DHT22;49183;51.380;0.098;2023-08-06T14:29:20;18.20;73.50
63094;DHT22;49183;51.380;0.098;2023-08-06T14:31:47;18.30;72.20
63094;DHT22;49183;51.380;0.098;2023-08-06T14:34:15;18.20;70.60
63094;DHT22;49183;51.380;0.098;2023-08-06T14:36:42;18.20;70.70
63094;DHT22;49183;51.380;0.098;2023-08-06T14:39:10;18.30;70.20
63094;DHT22;49183;51.380;0.098;2023-08-06T14:41:37;18.30;69.70
63094;DHT22;49183;51.380;0.098;2023-08-06T14:44:05;18.40;69.00
63094;DHT22;49183;51.380;0.098;2023-08-06T14:46:34;18.20;69.70
63094;DHT22;49183;51.380;0.098;2023-08-06T14:49:02;18.10;70.50
63094;DHT22;49183;51.380;0.098;2023-08-06T14:51:29;18.30;70.60
63094;DHT22;49183;51.380;0.098;2023-08-06T14:53:57;18.40;69.80
63094;DHT22;49183;51.380;0.098;2023-08-06T14:56:24;18.60;69.10
63094;DHT22;49183;51.380;0.098;2023-08-06T14:58:52;18.70;67.70
63094;DHT22;49183;51.380;0.098;2023-08-06T15:01:19;18.80;67.50
63094;DHT22;49183;51.380;0.098;2023-08-06T15:03:47;18.60;66.60
63094;DHT22;49183;51.380;0.098;2023-08-06T15:06:14;18.60;67.30
63094;DHT22;49183;51.380;0.098;2023-08-06T15:08:42;18.60;67.00
63094;DHT22;49183;51.380;0.098;2023-08-06T15:11:12;18.70;66.30
63094;DHT22;49183;51.380;0.098;2023-08-06T15:13:40;18.80;65.80
63094;DHT22;49183;51.380;0.098;2023-08-06T15:16:08;18.90;66.00
63094;DHT22;49183;51.380;0.098;2023-08-06T15:18:35;19.10;65.00
63094;DHT22;49183;51.380;0.098;2023-08-06T15:21:03;19.20;64.00
63094;DHT22;49183;51.380;0.098;2023-08-06T15:23:31;19.10;63.00
63094;DHT22;49183;51.380;0.098;2023-08-06T15:25:58;19.00;63.20
63094;DHT22;49183;51.380;0.098;2023-08-06T15:28:26;19.20;63.20
63094;DHT22;49183;51.380;0.098;2023-08-06T15:30:53;19.10;61.80
63094;DHT22;49183;51.380;0.098;2023-08-06T15:33:22;18.80;61.80
63094;DHT22;49183;51.380;0.098;2023-08-06T15:35:49;18.70;62.40
63094;DHT22;49183;51.380;0.098;2023-08-06T15:38:17;18.40;62.70
63094;DHT22;49183;51.380;0.098;2023-08-06T15:40:44;18.20;63.40
63094;DHT22;49183;51.380;0.098;2023-08-06T15:43:12;17.90;64.10
63094;DHT22;49183;51.380;0.098;2023-08-06T15:45:40;18.00;64.70
63094;DHT22;49183;51.380;0.098;2023-08-06T15:48:08;18.00;64.80
63094;DHT22;49183;51.380;0.098;2023-08-06T15:50:38;18.00;64.90